createdAt,value
2018-05-13T00:00:17.154Z,9.57
2018-05-13T00:02:44.075Z,9.93
2018-05-13T00:05:10.702Z,10.30
2018-05-13T00:07:37.319Z,9.03
2018-05-13T00:10:03.644Z,9.57
2018-05-13T00:12:30.109Z,10.00
2018-05-13T00:14:57.662Z,10.07
2018-05-13T00:17:24.673Z,10.00
2018-05-13T00:19:51.189Z,10.03
2018-05-13T00:22:17.505Z,10.60
2018-05-13T00:24:45.906Z,11.07
2018-05-13T00:27:12.809Z,11.27
2018-05-13T00:29:40.976Z,10.77
2018-05-13T00:32:07.675Z,10.97
2018-05-13T00:34:34.433Z,9.50
2018-05-13T00:37:00.768Z,9.67
2018-05-13T00:39:26.996Z,10.20
2018-05-13T00:41:53.294Z,10.20
2018-05-13T00:44:19.532Z,11.37
2018-05-13T00:46:45.886Z,10.47
2018-05-13T00:49:12.911Z,10.00
2018-05-13T00:51:39.251Z,10.10
2018-05-13T00:56:51.800Z,11.00
2018-05-13T00:59:18.146Z,10.07
2018-05-13T01:01:45.285Z,10.43
2018-05-13T01:04:13.424Z,9.93
2018-05-13T01:06:41.486Z,10.13
2018-05-13T01:09:12.858Z,10.10
2018-05-13T01:11:45.638Z,10.43
2018-05-13T01:14:16.845Z,9.80
2018-05-13T01:16:46.339Z,11.03
2018-05-13T01:19:15.688Z,10.60
2018-05-13T01:21:42.151Z,10.10
2018-05-13T01:24:09.100Z,10.60
2018-05-13T01:26:47.625Z,9.93
2018-05-13T01:29:16.897Z,10.47
2018-05-13T01:34:46.098Z,10.30
2018-05-13T01:37:13.023Z,10.23
2018-05-13T01:39:42.760Z,9.53
2018-05-13T01:42:16.018Z,11.00
2018-05-13T01:44:43.754Z,10.97
2018-05-13T01:47:10.484Z,10.90
2018-05-13T01:49:36.944Z,10.50
2018-05-13T01:52:03.696Z,9.90
2018-05-13T01:54:32.376Z,10.63
2018-05-13T01:56:58.968Z,10.80
2018-05-13T01:59:26.954Z,10.57
2018-05-13T02:01:54.742Z,10.33
2018-05-13T02:04:21.476Z,9.87
2018-05-13T02:06:47.885Z,10.17
2018-05-13T02:09:14.416Z,9.97
2018-05-13T02:11:41.134Z,11.33
2018-05-13T02:14:07.667Z,10.57
2018-05-13T02:16:34.140Z,10.50
2018-05-13T02:19:00.860Z,10.30
2018-05-13T02:21:27.630Z,10.90
2018-05-13T02:23:57.125Z,12.13
2018-05-13T02:26:33.185Z,13.10
2018-05-13T02:29:02.677Z,13.53
2018-05-13T02:31:29.066Z,13.97
2018-05-13T02:33:58.698Z,12.63
2018-05-13T02:36:26.681Z,12.23
2018-05-13T02:38:53.377Z,12.13
2018-05-13T02:41:19.671Z,12.27
2018-05-13T02:43:46.093Z,12.07
2018-05-13T02:46:16.461Z,12.23
2018-05-13T02:48:44.211Z,12.33
2018-05-13T02:51:15.545Z,11.20
2018-05-13T02:53:45.570Z,11.90
2018-05-13T02:56:15.701Z,11.63
2018-05-13T02:58:45.918Z,11.97
2018-05-13T03:01:16.293Z,11.17
2018-05-13T03:03:46.528Z,11.37
2018-05-13T03:06:18.909Z,13.67
2018-05-13T03:11:49.146Z,12.27
2018-05-13T03:14:16.540Z,15.03
2018-05-13T03:16:45.916Z,12.90
2018-05-13T03:19:13.221Z,12.60
2018-05-13T03:21:41.481Z,12.10
2018-05-13T03:24:15.294Z,12.73
2018-05-13T03:26:42.067Z,13.60
2018-05-13T03:29:12.185Z,11.20
2018-05-13T03:31:40.009Z,11.33
2018-05-13T03:34:08.064Z,12.50
2018-05-13T03:36:35.309Z,12.40
2018-05-13T03:39:02.969Z,11.40
2018-05-13T03:41:33.144Z,12.33
2018-05-13T03:43:59.930Z,12.60
2018-05-13T03:46:33.269Z,12.53
2018-05-13T03:49:04.009Z,13.53
2018-05-13T03:51:39.823Z,13.53
2018-05-13T03:54:16.047Z,13.60
2018-05-13T03:56:44.063Z,12.33
2018-05-13T03:59:17.064Z,14.47
2018-05-13T04:01:47.849Z,15.20
2018-05-13T04:04:18.024Z,13.07
2018-05-13T04:06:46.534Z,12.83
2018-05-13T04:09:27.238Z,11.30
2018-05-13T04:12:16.417Z,12.43
2018-05-13T04:14:55.579Z,13.17
2018-05-13T04:17:26.049Z,12.67
2018-05-13T04:19:52.883Z,11.40
2018-05-13T04:22:19.344Z,11.57
2018-05-13T04:24:45.806Z,14.77
2018-05-13T04:27:15.868Z,13.33
2018-05-13T04:35:45.797Z,13.57
2018-05-13T04:38:18.767Z,13.30
2018-05-13T04:43:48.242Z,12.30
2018-05-13T04:46:16.076Z,12.97
2018-05-13T04:48:42.659Z,13.27
2018-05-13T04:54:15.919Z,12.40
2018-05-13T05:02:45.960Z,11.60
2018-05-13T05:05:16.306Z,12.63
2018-05-13T05:07:48.085Z,12.67
2018-05-13T05:13:17.207Z,13.10
2018-05-13T05:15:46.110Z,13.43
2018-05-13T05:18:17.057Z,13.77
2018-05-13T05:20:47.542Z,12.77
2018-05-13T05:23:17.251Z,13.53
2018-05-13T05:25:47.558Z,13.00
2018-05-13T05:28:17.662Z,13.37
2018-05-13T05:30:47.019Z,13.70
2018-05-13T05:33:17.680Z,13.07
2018-05-13T05:35:46.154Z,14.60
2018-05-13T05:38:18.022Z,13.77
2018-05-13T05:43:47.457Z,12.37
2018-05-13T05:46:17.737Z,13.23
2018-05-13T05:48:46.982Z,12.87
2018-05-13T05:51:13.761Z,13.33
2018-05-13T05:53:43.142Z,13.63
2018-05-13T05:56:10.759Z,14.53
2018-05-13T05:58:47.419Z,13.93
2018-05-13T06:01:16.937Z,15.80
2018-05-13T06:03:46.985Z,15.43
2018-05-13T06:06:18.147Z,16.40
2018-05-13T06:08:47.487Z,15.23
2018-05-13T06:11:16.899Z,13.33
2018-05-13T06:13:47.127Z,14.50
2018-05-13T06:16:17.281Z,14.33
2018-05-13T06:18:47.962Z,13.17
2018-05-13T06:21:17.061Z,14.50
2018-05-13T06:23:46.923Z,13.97
2018-05-13T06:26:13.151Z,15.30
2018-05-13T06:28:39.351Z,14.83
2018-05-13T06:31:05.576Z,16.63
2018-05-13T06:33:32.683Z,16.10
2018-05-13T06:36:00.030Z,15.43
2018-05-13T06:38:27.755Z,14.80
2018-05-13T06:40:55.115Z,16.67
2018-05-13T06:43:32.493Z,16.60
2018-05-13T06:46:15.948Z,16.27
2018-05-13T06:48:46.530Z,17.60
2018-05-13T06:51:16.851Z,15.63
2018-05-13T06:53:47.106Z,16.80
2018-05-13T06:56:17.402Z,16.40
2018-05-13T06:58:44.707Z,17.00
2018-05-13T07:01:13.301Z,16.67
2018-05-13T07:03:40.599Z,14.57
2018-05-13T07:06:10.364Z,16.00
2018-05-13T07:08:36.905Z,16.80
2018-05-13T07:11:03.299Z,16.63
2018-05-13T07:13:32.776Z,17.00
2018-05-13T07:16:00.166Z,16.47
2018-05-13T07:18:46.335Z,17.03
2018-05-13T07:21:12.689Z,14.63
2018-05-13T07:23:43.276Z,16.17
2018-05-13T07:26:09.624Z,16.43
2018-05-13T07:28:42.975Z,16.10
2018-05-13T07:31:09.293Z,17.23
2018-05-13T07:33:39.800Z,17.03
2018-05-13T07:36:08.674Z,15.53
2018-05-13T07:38:36.231Z,16.47
2018-05-13T07:41:02.686Z,17.63
2018-05-13T07:43:31.616Z,16.73
2018-05-13T07:45:58.646Z,19.03
2018-05-13T07:48:33.228Z,17.10
2018-05-13T07:56:47.464Z,18.00
2018-05-13T08:17:16.303Z,17.30
2018-05-13T08:28:32.847Z,18.30
2018-05-13T08:30:59.947Z,18.20
2018-05-13T08:33:33.606Z,16.87
2018-05-13T08:41:48.086Z,16.87
2018-05-13T08:44:15.767Z,15.90
2018-05-13T08:49:46.543Z,17.67
2018-05-13T08:55:33.192Z,16.27
2018-05-13T08:58:18.490Z,17.10
2018-05-13T09:00:46.226Z,18.50
2018-05-13T09:09:19.063Z,17.23
2018-05-13T09:11:48.489Z,16.50
2018-05-13T09:17:16.504Z,16.87
2018-05-13T09:19:44.854Z,15.57
2018-05-13T09:28:17.383Z,17.50
2018-05-13T09:46:47.595Z,13.97
2018-05-13T09:49:17.123Z,14.70
2018-05-13T09:54:49.066Z,15.03
2018-05-13T10:00:19.027Z,14.70
2018-05-13T10:18:03.395Z,14.77
2018-05-13T10:20:49.998Z,14.40
2018-05-13T10:32:21.795Z,16.57
2018-05-13T10:41:10.260Z,17.80
2018-05-13T10:43:36.632Z,16.23
2018-05-13T10:46:02.964Z,15.37
2018-05-13T10:48:31.339Z,15.20
2018-05-13T10:50:57.665Z,15.40
2018-05-13T10:53:24.912Z,15.70
2018-05-13T10:55:53.407Z,16.10
2018-05-13T10:58:20.785Z,15.70
2018-05-13T11:00:47.332Z,13.40
2018-05-13T11:03:14.570Z,12.87
2018-05-13T11:05:40.908Z,12.80
2018-05-13T11:08:07.496Z,12.53
2018-05-13T11:10:45.245Z,11.33
2018-05-13T11:19:14.735Z,11.13
2018-05-13T11:21:42.944Z,7.70
2018-05-13T11:24:12.196Z,8.63
2018-05-13T11:26:44.864Z,10.10
2018-05-13T11:29:16.238Z,11.60
2018-05-13T11:31:46.259Z,10.63
2018-05-13T11:34:16.591Z,11.53
2018-05-13T11:36:46.597Z,10.40
2018-05-13T11:39:34.610Z,9.03
2018-05-13T11:42:03.841Z,9.70
2018-05-13T11:44:30.419Z,11.00
2018-05-13T11:47:05.464Z,9.50
2018-05-13T11:49:35.521Z,10.20
2018-05-13T11:52:02.115Z,9.50
2018-05-13T11:54:29.622Z,8.20
2018-05-13T11:56:59.544Z,12.67
2018-05-13T11:59:27.106Z,9.17
2018-05-13T12:01:54.599Z,9.50
2018-05-13T12:04:23.179Z,10.87
2018-05-13T12:06:56.219Z,8.60
2018-05-13T12:09:24.750Z,10.60
2018-05-13T12:11:53.397Z,9.60
2018-05-13T12:14:26.508Z,9.90
2018-05-13T12:16:55.475Z,9.20
2018-05-13T12:19:26.960Z,9.53
2018-05-13T12:21:57.305Z,10.50
2018-05-13T12:24:24.048Z,9.80
2018-05-13T12:26:52.325Z,10.97
2018-05-13T12:29:20.480Z,9.50
2018-05-13T12:31:47.860Z,10.20
2018-05-13T12:34:16.178Z,10.60
2018-05-13T12:36:56.454Z,10.37
2018-05-13T12:39:23.093Z,9.93
2018-05-13T12:41:51.722Z,10.20
2018-05-13T12:44:18.832Z,9.00
2018-05-13T12:46:56.636Z,8.10
2018-05-13T12:49:25.378Z,10.00
2018-05-13T12:51:52.978Z,10.20
2018-05-13T12:54:22.919Z,9.30
2018-05-13T12:56:49.314Z,9.43
2018-05-13T12:59:15.858Z,8.87
2018-05-13T13:01:56.289Z,8.60
2018-05-13T13:04:43.430Z,7.20
2018-05-13T13:07:11.520Z,7.30
2018-05-13T13:09:38.059Z,8.10
2018-05-13T13:12:06.487Z,8.97
2018-05-13T13:14:34.635Z,7.97
2018-05-13T13:17:03.085Z,8.40
2018-05-13T13:19:29.820Z,7.90
2018-05-13T13:21:58.140Z,7.37
2018-05-13T13:27:27.108Z,9.27
2018-05-13T13:29:54.431Z,8.93
2018-05-13T13:32:23.601Z,8.83
2018-05-13T13:34:51.185Z,9.00
2018-05-13T13:40:27.604Z,7.80
2018-05-13T13:42:53.926Z,7.83
2018-05-13T13:45:20.239Z,9.10
2018-05-13T13:47:53.291Z,8.00
2018-05-13T13:50:21.697Z,8.90
2018-05-13T13:55:41.656Z,10.43
2018-05-13T13:58:08.691Z,8.60
2018-05-13T14:00:35.039Z,7.57
2018-05-13T14:03:01.376Z,7.70
2018-05-13T14:05:30.160Z,9.37
2018-05-13T14:07:56.651Z,7.83
2018-05-13T14:10:47.421Z,8.00
2018-05-13T14:13:33.546Z,8.43
2018-05-13T14:16:00.998Z,8.40
2018-05-13T14:18:27.339Z,8.40
2018-05-13T14:20:53.623Z,7.60
2018-05-13T14:23:24.281Z,8.40
2018-05-13T14:25:52.113Z,7.97
2018-05-13T14:28:20.390Z,7.37
2018-05-13T14:30:47.127Z,7.10
2018-05-13T14:33:13.416Z,9.20
2018-05-13T14:35:41.382Z,8.17
2018-05-13T14:38:08.733Z,7.30
2018-05-13T14:40:34.962Z,8.07
2018-05-13T14:43:01.198Z,8.27
2018-05-13T14:45:28.484Z,7.80
2018-05-13T14:47:55.815Z,8.00
2018-05-13T14:50:23.266Z,8.93
2018-05-13T14:53:03.950Z,6.63
2018-05-13T14:58:05.251Z,6.90
2018-05-13T15:00:33.733Z,5.67
2018-05-13T15:03:00.415Z,6.13
2018-05-13T15:05:26.713Z,5.33
2018-05-13T15:07:55.198Z,5.70
2018-05-13T15:10:23.459Z,5.23
2018-05-13T15:12:51.931Z,6.13
2018-05-13T15:15:26.871Z,5.70
2018-05-13T15:17:54.170Z,4.40
2018-05-13T15:20:21.989Z,4.33
2018-05-13T15:22:55.553Z,4.90
2018-05-13T15:25:21.890Z,4.03
2018-05-13T15:27:48.210Z,4.43
2018-05-13T15:30:15.539Z,4.43
2018-05-13T15:32:48.250Z,4.27
2018-05-13T15:35:15.647Z,4.20
2018-05-13T15:37:42.004Z,4.70
2018-05-13T15:40:13.710Z,5.00
2018-05-13T15:42:42.114Z,5.07
2018-05-13T15:45:12.327Z,4.57
2018-05-13T15:47:39.405Z,5.47
2018-05-13T15:50:11.266Z,4.40
2018-05-13T15:52:44.188Z,4.43
2018-05-13T15:55:11.528Z,3.93
2018-05-13T15:57:56.496Z,3.93
2018-05-13T16:00:28.786Z,4.60
2018-05-13T16:02:55.013Z,4.53
2018-05-13T16:05:28.013Z,4.60
2018-05-13T16:07:57.165Z,4.00
2018-05-13T16:10:24.431Z,4.23
2018-05-13T16:12:52.501Z,4.40
2018-05-13T16:15:21.677Z,4.20
2018-05-13T16:17:52.568Z,3.80
2018-05-13T16:20:26.741Z,4.33
2018-05-13T16:23:00.922Z,3.60
2018-05-13T16:25:36.399Z,3.70
2018-05-13T16:28:03.188Z,3.27
2018-05-13T16:30:33.314Z,4.80
2018-05-13T16:33:00.699Z,3.60
2018-05-13T16:35:28.859Z,3.53
2018-05-13T16:37:56.456Z,3.63
2018-05-13T16:40:22.883Z,3.67
2018-05-13T16:42:50.339Z,3.60
2018-05-13T16:45:25.862Z,3.73
2018-05-13T16:47:52.238Z,3.77
2018-05-13T16:56:41.210Z,4.43
2018-05-13T16:59:07.777Z,3.80
2018-05-13T17:01:40.317Z,3.90
2018-05-13T17:10:13.922Z,3.53
2018-05-13T17:12:42.343Z,4.00
2018-05-13T17:15:08.639Z,4.13
2018-05-13T17:17:56.961Z,4.20
2018-05-13T17:30:00.066Z,3.70
2018-05-13T17:32:27.315Z,4.13
2018-05-13T17:34:59.534Z,4.33
2018-05-13T17:52:58.291Z,4.73
2018-05-13T18:13:44.829Z,5.30
2018-05-13T18:28:01.084Z,5.70
2018-05-13T18:30:27.682Z,5.43
2018-05-13T18:32:59.363Z,5.80
2018-05-13T18:35:32.460Z,5.37
2018-05-13T18:41:01.135Z,8.30
2018-05-13T18:43:30.713Z,7.33
2018-05-13T18:45:57.955Z,7.77
2018-05-13T18:48:27.940Z,8.80
2018-05-13T18:51:01.370Z,8.60
2018-05-13T18:53:30.701Z,9.13
2018-05-13T18:56:02.207Z,8.50
2018-05-13T19:01:32.120Z,9.23
2018-05-13T19:04:19.933Z,9.60
2018-05-13T19:06:46.481Z,9.03
2018-05-13T19:12:15.901Z,8.93
2018-05-13T19:14:46.185Z,10.87
2018-05-13T19:20:22.542Z,11.83
2018-05-13T19:22:49.494Z,9.30
2018-05-13T19:25:16.545Z,13.20
2018-05-13T19:27:45.801Z,8.53
2018-05-13T19:30:13.896Z,9.23
2018-05-13T19:32:46.955Z,8.70
2018-05-13T19:35:13.798Z,9.20
2018-05-13T19:37:44.627Z,9.23
2018-05-13T19:40:13.943Z,9.17
2018-05-13T19:42:46.358Z,8.97
2018-05-13T19:45:16.422Z,9.73
2018-05-13T19:47:45.372Z,9.77
2018-05-13T19:50:18.992Z,10.37
2018-05-13T19:52:45.342Z,10.47
2018-05-13T19:55:11.575Z,24.30
2018-05-13T19:57:37.862Z,11.13
2018-05-13T20:00:05.933Z,17.40
2018-05-13T20:02:32.214Z,16.87
2018-05-13T20:04:58.423Z,11.30
2018-05-13T20:07:25.347Z,63.73
2018-05-13T20:09:51.759Z,9.57
2018-05-13T20:12:17.928Z,9.20
2018-05-13T20:14:44.429Z,9.60
2018-05-13T20:17:14.836Z,9.23
2018-05-13T20:19:45.327Z,7.93
2018-05-13T20:22:16.667Z,9.63
2018-05-13T20:24:44.690Z,9.03
2018-05-13T20:27:10.954Z,8.73
2018-05-13T20:29:37.846Z,8.80
2018-05-13T20:32:14.622Z,9.50
2018-05-13T20:34:45.921Z,8.03
2018-05-13T20:37:15.081Z,9.27
2018-05-13T20:39:45.346Z,9.10
2018-05-13T20:42:15.643Z,9.60
2018-05-13T20:44:45.675Z,8.50
2018-05-13T20:47:15.371Z,8.90
2018-05-13T20:49:45.422Z,10.97
2018-05-13T20:52:14.432Z,12.30
2018-05-13T20:54:47.159Z,11.33
2018-05-13T20:57:15.629Z,12.37
2018-05-13T20:59:44.810Z,14.83
2018-05-13T21:02:14.793Z,11.47
2018-05-13T21:04:44.681Z,12.27
2018-05-13T21:07:14.277Z,13.27
2018-05-13T21:12:35.431Z,12.43
2018-05-13T21:15:04.809Z,11.03
2018-05-13T21:20:44.196Z,11.23
2018-05-13T21:23:17.299Z,11.07
2018-05-13T21:25:45.890Z,13.00
2018-05-13T21:28:16.053Z,9.93
2018-05-13T21:30:44.424Z,11.50
2018-05-13T21:33:14.574Z,10.80
2018-05-13T21:35:47.007Z,10.77
2018-05-13T21:38:14.513Z,10.50
2018-05-13T21:40:44.730Z,10.03
2018-05-13T21:43:15.267Z,8.43
2018-05-13T21:45:45.538Z,8.33
2018-05-13T21:48:18.631Z,7.43
2018-05-13T21:50:45.203Z,7.17
2018-05-13T21:53:15.449Z,7.27
2018-05-13T21:55:45.746Z,7.60
2018-05-13T21:58:16.123Z,6.53
2018-05-13T22:12:37.295Z,6.30
2018-05-13T22:15:03.506Z,7.57
2018-05-13T22:17:30.560Z,7.00
2018-05-13T22:19:56.974Z,7.20
2018-05-13T22:22:23.187Z,7.47
2018-05-13T22:24:49.417Z,8.10
2018-05-13T22:27:15.600Z,8.47
2018-05-13T22:29:41.818Z,6.70
2018-05-13T22:32:08.014Z,7.77
2018-05-13T22:34:37.412Z,6.77
2018-05-13T22:37:03.874Z,7.50
2018-05-13T22:39:44.178Z,6.53
2018-05-13T22:42:11.725Z,7.17
2018-05-13T22:44:42.085Z,7.07
2018-05-13T22:47:09.447Z,6.63
2018-05-13T22:52:14.099Z,8.13
2018-05-13T22:57:15.138Z,9.27
2018-05-13T22:59:44.566Z,9.87
2018-05-13T23:02:12.547Z,10.93
2018-05-13T23:07:14.524Z,10.20
2018-05-13T23:12:43.759Z,12.33
2018-05-13T23:15:10.007Z,13.40
2018-05-13T23:17:36.223Z,12.53
2018-05-13T23:20:02.701Z,14.00
2018-05-13T23:22:33.769Z,15.10
2018-05-13T23:25:00.037Z,14.93
2018-05-13T23:27:26.429Z,14.80
2018-05-13T23:29:52.712Z,13.00
2018-05-13T23:32:18.944Z,12.70
2018-05-13T23:34:45.157Z,13.47
2018-05-13T23:37:11.942Z,12.10
2018-05-13T23:39:44.300Z,11.40
2018-05-13T23:42:14.982Z,8.77
2018-05-13T23:44:44.401Z,9.47
2018-05-13T23:47:10.644Z,8.70
2018-05-13T23:49:36.900Z,9.43
2018-05-13T23:52:03.206Z,8.57
2018-05-13T23:54:31.018Z,8.70
2018-05-13T23:56:58.531Z,8.30
2018-05-13T23:59:25.140Z,8.27
